Time;durP1;ratioP1;P1;durP2;ratioP2;P2;SDS_P1;SDS_P2;PMS_P1;PMS_P2;Temp;Humidity;BMP_temperature;BMP_pressure;BME280_temperature;BME280_humidity;BME280_pressure;Samples;Min_cycle;Max_cycle;Signal;HPM_P1;HPM_P2
2021/12/13 00:00:16;;;;;;;1.80;0.57;;;27.10;84.80;;;;;;5124434;27;20024;-80
2021/12/13 00:02:53;;;;;;;4.43;0.80;;;27.20;89.80;;;;;;5126772;27;20027;-81
2021/12/13 00:05:58;;;;;;;2.28;0.57;;;27.30;86.10;;;;;;5128757;27;20053;-78
2021/12/13 00:08:32;;;;;;;2.85;0.60;;;27.30;87.90;;;;;;5124138;27;20035;-78
2021/12/13 00:11:14;;;;;;;3.38;0.65;;;27.40;87.10;;;;;;5131877;27;20046;-79
2021/12/13 00:13:46;;;;;;;4.25;0.60;;;27.40;83.80;;;;;;5127884;27;20015;-76
2021/12/13 00:16:15;;;;;;;5.60;0.90;;;27.20;84.20;;;;;;5127122;27;20023;-78
2021/12/13 00:18:48;;;;;;;5.97;0.85;;;27.00;85.50;;;;;;5128906;27;20023;-79
2021/12/13 00:21:22;;;;;;;3.28;0.63;;;27.30;88.60;;;;;;5124401;27;20030;-79
2021/12/13 00:24:03;;;;;;;4.57;0.73;;;27.50;87.40;;;;;;5119547;27;20036;-78
2021/12/13 00:27:00;;;;;;;3.35;0.77;;;27.40;83.50;;;;;;5124272;27;20493;-80
2021/12/13 00:29:52;;;;;;;3.38;0.80;;;27.60;81.00;;;;;;5117223;27;20620;-78
2021/12/13 00:32:35;;;;;;;4.18;0.82;;;26.90;83.70;;;;;;5124113;27;20584;-75
2021/12/13 00:35:09;;;;;;;5.95;1.02;;;27.10;89.40;;;;;;5115313;27;20039;-77
2021/12/13 00:37:49;;;;;;;4.13;0.80;;;27.30;86.30;;;;;;5122510;27;20147;-75
2021/12/13 00:40:27;;;;;;;3.53;0.68;;;27.60;87.40;;;;;;5124409;27;20080;-75
2021/12/13 00:43:08;;;;;;;3.22;0.70;;;27.70;84.50;;;;;;5131662;27;20046;-75
2021/12/13 00:45:47;;;;;;;4.45;0.80;;;27.60;83.20;;;;;;5123840;27;20485;-76
2021/12/13 00:48:16;;;;;;;5.32;0.60;;;27.60;86.30;;;;;;5119417;27;20035;-77
2021/12/13 00:50:53;;;;;;;3.58;1.02;;;27.90;87.80;;;;;;5129234;27;20676;-78
2021/12/13 00:53:22;;;;;;;3.28;0.93;;;27.90;81.30;;;;;;5125305;27;20107;-77
2021/12/13 00:55:51;;;;;;;3.10;1.00;;;27.60;83.00;;;;;;5129352;27;20381;-77
2021/12/13 00:58:22;;;;;;;3.60;0.80;;;28.00;85.10;;;;;;5136333;27;20039;-76
2021/12/13 01:00:54;;;;;;;4.85;0.75;;;28.00;81.80;;;;;;5134610;27;20023;-78
2021/12/13 01:03:28;;;;;;;3.03;0.90;;;28.10;84.00;;;;;;5133053;27;20031;-74
2021/12/13 01:06:16;;;;;;;4.47;1.10;;;28.40;81.40;;;;;;5127367;27;20095;-74
2021/12/13 01:09:19;;;;;;;7.63;1.33;;;28.30;84.80;;;;;;5113489;27;20063;-79
2021/12/13 01:11:59;;;;;;;2.70;0.52;;;28.50;82.60;;;;;;5122907;27;20080;-75
2021/12/13 01:14:33;;;;;;;4.18;0.80;;;28.70;84.30;;;;;;5133212;27;20023;-76
2021/12/13 01:17:17;;;;;;;6.55;0.82;;;29.00;82.90;;;;;;5130744;27;20031;-77
2021/12/13 01:20:05;;;;;;;4.97;1.00;;;29.30;85.00;;;;;;5132115;27;20359;-78
2021/12/13 01:25:49;;;;;;;6.15;0.75;;;29.90;80.50;;;;;;5123819;27;20073;-80
2021/12/13 01:28:34;;;;;;;7.00;1.73;;;30.10;84.60;;;;;;5108882;27;20088;-80
2021/12/13 01:31:09;;;;;;;3.00;0.70;;;29.90;79.20;;;;;;5130796;27;20057;-79
2021/12/13 01:33:43;;;;;;;2.92;0.75;;;29.40;79.30;;;;;;5130063;27;20030;-80
2021/12/13 01:36:18;;;;;;;1.35;0.63;;;28.80;78.40;;;;;;5132433;27;20462;-78
2021/12/13 01:38:56;;;;;;;4.13;1.13;;;28.60;82.80;;;;;;5118554;27;20051;-77
2021/12/13 01:41:41;;;;;;;12.25;1.48;;;29.00;84.90;;;;;;5123178;27;20102;-74
2021/12/13 01:44:10;;;;;;;;;;;29.30;81.70;;;;;;5130787;27;20043;-78
2021/12/13 01:46:42;;;;;;;5.45;0.60;;;29.70;81.60;;;;;;5123929;27;20005;-76
2021/12/13 01:49:10;;;;;;;5.07;0.90;;;29.90;82.40;;;;;;5131820;27;20030;-77
2021/12/13 01:51:38;;;;;;;3.50;0.73;;;30.10;81.00;;;;;;5130683;27;20965;-77
2021/12/13 01:54:16;;;;;;;4.30;0.80;;;30.40;79.20;;;;;;5131780;27;20051;-77
2021/12/13 01:56:53;;;;;;;4.88;1.27;;;30.40;81.20;;;;;;5129667;27;20023;-77
2021/12/13 02:02:22;;;;;;;3.97;1.33;;;30.80;82.10;;;;;;5130914;27;20038;-77
2021/12/13 02:05:05;;;;;;;2.67;0.50;;;30.80;80.30;;;;;;5130997;27;20118;-76
2021/12/13 02:07:58;;;;;;;1.92;0.50;;;30.90;78.30;;;;;;5129518;27;20039;-76
2021/12/13 02:10:38;;;;;;;4.10;0.70;;;31.10;75.60;;;;;;5116859;27;20039;-78
2021/12/13 02:13:17;;;;;;;4.15;1.35;;;30.90;78.80;;;;;;5127962;27;20110;-75
2021/12/13 02:18:37;;;;;;;2.92;0.95;;;30.40;75.70;;;;;;5113799;27;20034;-74
2021/12/13 02:21:24;;;;;;;2.45;0.80;;;29.20;76.40;;;;;;5125337;27;20023;-74
2021/12/13 02:23:55;;;;;;;4.00;0.73;;;29.30;77.60;;;;;;5113348;27;20415;-76
2021/12/13 02:26:25;;;;;;;2.20;0.52;;;29.80;75.90;;;;;;5122747;27;20027;-76
2021/12/13 02:29:08;;;;;;;3.08;0.47;;;29.90;78.80;;;;;;5108989;28;20549;-73
2021/12/13 02:31:40;;;;;;;3.35;0.73;;;30.20;80.20;;;;;;5120087;28;20030;-77
2021/12/13 02:34:11;;;;;;;3.47;0.70;;;30.60;77.90;;;;;;5120760;28;20027;-79
2021/12/13 02:36:47;;;;;;;3.97;0.88;;;30.90;77.70;;;;;;5126999;28;20154;-77
2021/12/13 02:39:21;;;;;;;2.10;0.57;;;31.20;77.90;;;;;;5130706;28;20059;-76
2021/12/13 02:41:49;;;;;;;4.25;1.45;;;31.40;76.70;;;;;;5123569;28;20027;-78
2021/12/13 02:44:26;;;;;;;4.18;0.80;;;31.20;74.40;;;;;;5116606;28;20570;-76
2021/12/13 02:47:01;;;;;;;3.88;1.00;;;31.10;74.30;;;;;;5114128;28;20130;-75
2021/12/13 02:49:29;;;;;;;3.42;0.68;;;31.00;73.50;;;;;;5116421;28;20094;-74
2021/12/13 02:52:01;;;;;;;3.97;1.13;;;30.90;75.70;;;;;;5100861;28;20031;-76
2021/12/13 02:54:40;;;;;;;2.55;0.70;;;30.50;73.50;;;;;;5120556;28;20023;-74
2021/12/13 02:57:30;;;;;;;2.47;0.80;;;30.10;73.70;;;;;;5117657;28;20027;-76
2021/12/13 03:00:07;;;;;;;3.10;0.55;;;30.00;75.70;;;;;;5119909;28;20030;-75
2021/12/13 03:02:39;;;;;;;4.30;0.80;;;30.60;79.30;;;;;;5130265;28;20087;-75
2021/12/13 03:05:14;;;;;;;4.68;1.10;;;30.90;77.30;;;;;;5122608;28;20486;-75
2021/12/13 03:07:45;;;;;;;3.60;0.60;;;31.40;76.70;;;;;;5126021;28;20031;-77
2021/12/13 03:10:18;;;;;;;2.95;0.43;;;31.60;73.60;;;;;;5122293;27;20031;-77
2021/12/13 03:12:46;;;;;;;1.90;0.60;;;31.90;71.80;;;;;;5124644;27;20122;-78
2021/12/13 03:15:18;;;;;;;3.72;0.82;;;31.70;72.30;;;;;;5123773;27;20064;-75
2021/12/13 03:17:55;;;;;;;2.22;0.65;;;31.70;70.60;;;;;;5125025;27;20027;-76
2021/12/13 03:20:50;;;;;;;3.08;0.85;;;31.60;73.90;;;;;;5124475;27;20051;-76
2021/12/13 03:23:20;;;;;;;3.65;0.70;;;31.20;72.10;;;;;;5129295;27;20034;-74
2021/12/13 03:25:53;;;;;;;2.80;0.60;;;31.00;75.90;;;;;;5129419;27;20099;-75
2021/12/13 03:28:39;;;;;;;2.40;0.60;;;31.00;75.10;;;;;;5125980;27;20067;-74
2021/12/13 03:31:11;;;;;;;2.50;0.65;;;31.20;75.10;;;;;;5129689;27;20027;-75
2021/12/13 03:33:59;;;;;;;5.50;1.38;;;31.50;73.70;;;;;;5133855;27;20019;-77
2021/12/13 03:37:03;;;;;;;3.28;0.80;;;31.20;72.30;;;;;;5133173;27;20066;-75
2021/12/13 03:39:50;;;;;;;4.13;0.50;;;31.30;72.90;;;;;;5126610;27;20047;-76
2021/12/13 03:42:50;;;;;;;4.35;0.70;;;31.30;70.40;;;;;;5129794;27;20026;-75
2021/12/13 03:45:28;;;;;;;3.03;0.50;;;30.70;68.80;;;;;;5130113;27;20015;-77
2021/12/13 03:47:58;;;;;;;1.90;0.70;;;30.20;72.60;;;;;;5132404;27;20490;-77
2021/12/13 03:50:34;;;;;;;1.80;0.77;;;30.30;73.00;;;;;;5128621;27;20016;-78
2021/12/13 03:53:07;;;;;;;2.08;0.55;;;30.90;76.90;;;;;;5128997;27;20020;-75
2021/12/13 03:55:36;;;;;;;4.00;0.70;;;31.50;73.50;;;;;;5120569;27;20047;-76
2021/12/13 03:58:07;;;;;;;1.73;0.45;;;31.80;71.90;;;;;;5121396;27;20023;-76
2021/12/13 04:00:40;;;;;;;2.95;0.60;;;31.90;70.50;;;;;;5123006;27;20019;-77
2021/12/13 04:03:11;;;;;;;2.58;0.82;;;32.00;73.60;;;;;;5133790;27;20102;-77
2021/12/13 04:05:39;;;;;;;3.33;0.70;;;31.80;70.10;;;;;;5131620;27;20470;-75
2021/12/13 04:08:11;;;;;;;1.98;0.43;;;32.10;72.80;;;;;;5131397;27;20034;-76
2021/12/13 04:10:50;;;;;;;4.43;1.45;;;32.30;71.60;;;;;;5127567;27;20531;-75
2021/12/13 04:13:21;;;;;;;3.17;0.75;;;32.30;71.60;;;;;;5121859;27;20071;-76
2021/12/13 04:16:08;;;;;;;2.92;0.75;;;32.60;71.30;;;;;;5126027;27;20460;-77
2021/12/13 04:19:19;;;;;;;4.15;1.13;;;32.30;70.90;;;;;;5125577;27;20432;-78
2021/12/13 04:21:50;;;;;;;6.80;1.95;;;32.00;69.10;;;;;;5111851;27;20040;-76
2021/12/13 04:24:44;;;;;;;6.57;2.35;;;31.60;70.70;;;;;;5124144;27;20015;-80
2021/12/13 04:27:20;;;;;;;6.13;1.70;;;31.60;70.50;;;;;;5132128;27;20027;-77
2021/12/13 04:29:51;;;;;;;6.00;1.27;;;31.50;71.00;;;;;;5130387;27;20482;-74
2021/12/13 04:32:24;;;;;;;4.18;1.30;;;31.10;71.30;;;;;;5129386;27;20027;-73
2021/12/13 04:34:54;;;;;;;7.30;1.55;;;30.80;72.20;;;;;;5126624;27;20015;-76
2021/12/13 04:37:24;;;;;;;5.28;0.88;;;30.80;72.30;;;;;;5124923;27;20107;-74
2021/12/13 04:40:01;;;;;;;4.03;0.80;;;30.90;71.70;;;;;;5128427;27;20050;-74
2021/12/13 04:42:30;;;;;;;3.95;1.75;;;30.80;71.90;;;;;;5120317;27;20058;-75
2021/12/13 04:45:03;;;;;;;9.60;1.20;;;30.80;72.10;;;;;;5127456;27;20110;-75
2021/12/13 04:47:37;;;;;;;4.93;0.90;;;30.50;72.30;;;;;;5123428;27;20023;-76
2021/12/13 04:50:11;;;;;;;8.73;0.80;;;30.40;72.50;;;;;;5126182;27;20027;-73
2021/12/13 04:52:40;;;;;;;5.53;1.30;;;30.40;73.70;;;;;;5129923;27;20027;-73
2021/12/13 04:55:16;;;;;;;4.88;1.00;;;30.20;73.20;;;;;;5123950;27;20477;-74
2021/12/13 04:57:43;;;;;;;3.55;1.40;;;29.80;75.40;;;;;;5130127;27;20019;-76
2021/12/13 05:00:18;;;;;;;4.75;1.35;;;29.70;74.70;;;;;;5126358;27;20031;-75
2021/12/13 05:02:51;;;;;;;5.57;1.10;;;29.60;74.70;;;;;;5128531;27;20103;-75
2021/12/13 05:05:20;;;;;;;3.30;0.65;;;29.40;75.40;;;;;;5127846;27;20485;-76
2021/12/13 05:07:50;;;;;;;5.53;0.98;;;29.20;75.40;;;;;;5131470;27;20482;-74
2021/12/13 05:10:17;;;;;;;6.03;1.40;;;28.90;76.00;;;;;;5131978;27;20034;-77
2021/12/13 05:13:10;;;;;;;10.32;1.25;;;28.70;76.20;;;;;;5130618;27;20026;-77
2021/12/13 05:15:41;;;;;;;3.90;1.05;;;28.50;76.50;;;;;;5123921;27;20027;-76
2021/12/13 05:18:20;;;;;;;9.85;1.85;;;28.40;76.60;;;;;;5132708;27;20015;-76
2021/12/13 05:20:56;;;;;;;6.65;1.50;;;28.40;77.20;;;;;;5125329;27;20491;-75
2021/12/13 05:23:25;;;;;;;3.90;1.50;;;28.40;76.80;;;;;;5115886;27;20039;-78
2021/12/13 05:25:59;;;;;;;6.53;1.27;;;28.40;77.20;;;;;;5125547;27;20031;-78
2021/12/13 05:28:38;;;;;;;5.75;1.33;;;28.20;77.30;;;;;;5131181;27;20110;-78
2021/12/13 05:31:10;;;;;;;4.72;1.20;;;28.20;77.50;;;;;;5119719;27;20063;-78
2021/12/13 05:33:42;;;;;;;11.18;2.17;;;28.10;77.60;;;;;;5127889;27;20027;-78
2021/12/13 05:36:22;;;;;;;4.05;1.00;;;28.10;77.50;;;;;;5128963;27;20068;-77
2021/12/13 05:39:13;;;;;;;6.82;1.40;;;27.90;78.00;;;;;;5127016;27;20051;-76
2021/12/13 05:41:49;;;;;;;6.50;1.30;;;27.80;78.10;;;;;;5129216;27;20023;-76
2021/12/13 05:44:32;;;;;;;6.82;1.52;;;27.60;78.30;;;;;;5103895;27;20039;-75
2021/12/13 05:47:01;;;;;;;6.93;0.63;;;27.70;79.00;;;;;;5122560;27;20075;-77
2021/12/13 05:49:41;;;;;;;5.53;0.82;;;27.50;79.30;;;;;;5129323;27;20038;-79
2021/12/13 05:52:11;;;;;;;4.63;1.02;;;27.40;78.80;;;;;;5127576;27;20058;-82
2021/12/13 05:54:46;;;;;;;4.00;0.90;;;27.30;79.20;;;;;;5125442;27;20077;-77
2021/12/13 05:57:24;;;;;;;11.45;1.45;;;27.20;80.30;;;;;;5124890;27;20089;-77
2021/12/13 06:00:20;;;;;;;6.82;1.10;;;27.20;80.10;;;;;;5130631;27;20055;-78
2021/12/13 06:03:05;;;;;;;7.05;1.38;;;27.20;80.00;;;;;;5131264;27;20062;-77
2021/12/13 06:05:39;;;;;;;4.57;0.88;;;27.10;80.20;;;;;;5128681;27;20039;-76
2021/12/13 06:08:15;;;;;;;5.32;0.98;;;26.90;80.20;;;;;;5127619;27;20038;-77
2021/12/13 06:10:52;;;;;;;3.40;0.73;;;26.90;80.60;;;;;;5123492;27;20135;-76
2021/12/13 06:13:43;;;;;;;7.78;1.45;;;26.90;81.20;;;;;;5130002;27;20034;-76
2021/12/13 06:16:41;;;;;;;5.70;0.85;;;26.80;80.30;;;;;;5130428;27;20023;-79
2021/12/13 06:19:29;;;;;;;10.38;1.70;;;26.70;80.90;;;;;;5129576;27;20026;-80
2021/12/13 06:22:09;;;;;;;5.55;1.20;;;26.50;81.10;;;;;;5130719;27;20072;-77
2021/12/13 06:25:00;;;;;;;8.75;1.67;;;26.40;81.70;;;;;;5111948;28;20034;-79
2021/12/13 06:27:52;;;;;;;6.25;1.52;;;26.40;81.70;;;;;;5118984;27;20035;-77
2021/12/13 06:30:25;;;;;;;5.50;0.88;;;26.20;81.90;;;;;;5118047;28;20084;-78
2021/12/13 06:32:59;;;;;;;5.45;1.05;;;26.00;82.60;;;;;;5127678;28;20023;-78
2021/12/13 06:35:31;;;;;;;3.38;0.73;;;26.00;82.70;;;;;;5125461;28;20027;-80
2021/12/13 06:38:17;;;;;;;3.92;1.30;;;26.00;82.80;;;;;;5125615;28;20784;-75
2021/12/13 06:40:57;;;;;;;3.42;0.70;;;26.10;82.40;;;;;;5119025;28;20470;-77
2021/12/13 06:43:39;;;;;;;4.85;0.95;;;25.90;82.80;;;;;;5129743;28;20020;-79
2021/12/13 06:46:21;;;;;;;4.30;1.13;;;25.90;83.40;;;;;;5127062;27;20027;-76
2021/12/13 06:48:59;;;;;;;8.10;1.70;;;25.80;83.50;;;;;;5130715;27;20066;-75
2021/12/13 06:51:48;;;;;;;6.60;1.02;;;25.60;83.60;;;;;;5134749;27;20029;-78
2021/12/13 06:54:21;;;;;;;2.88;1.05;;;25.30;84.30;;;;;;5135052;27;20031;-75
2021/12/13 06:57:02;;;;;;;3.95;0.88;;;25.30;84.50;;;;;;5131884;27;20076;-78
2021/12/13 06:59:31;;;;;;;3.38;0.85;;;25.10;84.80;;;;;;5131980;27;20023;-78
2021/12/13 07:02:18;;;;;;;8.00;1.60;;;25.20;85.10;;;;;;5131273;27;20020;-78
2021/12/13 07:05:05;;;;;;;6.28;0.98;;;25.20;84.60;;;;;;5126794;27;20059;-75
2021/12/13 07:07:49;;;;;;;5.03;1.33;;;25.10;85.10;;;;;;5120401;27;20039;-76
2021/12/13 07:10:21;;;;;;;7.25;1.00;;;25.20;85.30;;;;;;5130839;27;20027;-80
2021/12/13 07:12:52;;;;;;;5.63;1.08;;;25.20;85.90;;;;;;5127865;27;20043;-81
2021/12/13 07:15:45;;;;;;;5.28;1.38;;;25.10;85.50;;;;;;5131261;27;20467;-76
2021/12/13 07:18:15;;;;;;;5.57;0.80;;;25.00;85.00;;;;;;5122619;27;20031;-76
2021/12/13 07:20:50;;;;;;;3.17;1.13;;;24.90;85.30;;;;;;5130868;27;20023;-76
2021/12/13 07:23:18;;;;;;;6.30;0.77;;;24.60;85.90;;;;;;5135532;27;20015;-77
2021/12/13 07:25:48;;;;;;;3.58;0.60;;;24.40;86.10;;;;;;5128620;27;20472;-77
2021/12/13 07:28:35;;;;;;;3.92;1.00;;;24.40;86.50;;;;;;5133775;27;20034;-76
2021/12/13 07:31:05;;;;;;;7.55;1.13;;;24.40;87.30;;;;;;5131377;27;20023;-76
2021/12/13 07:33:45;;;;;;;3.63;0.82;;;24.40;86.30;;;;;;5134006;27;20015;-75
2021/12/13 07:36:26;;;;;;;4.65;0.70;;;24.40;86.70;;;;;;5124876;27;20106;-76
2021/12/13 07:39:00;;;;;;;3.15;0.47;;;24.40;87.30;;;;;;5109240;28;20469;-75
2021/12/13 07:41:52;;;;;;;4.38;0.82;;;24.40;86.90;;;;;;5113849;28;20080;-75
2021/12/13 07:44:47;;;;;;;4.30;0.90;;;24.40;86.90;;;;;;5131040;28;20020;-75
2021/12/13 07:47:26;;;;;;;3.63;1.10;;;24.20;87.20;;;;;;5123423;28;20039;-77
2021/12/13 07:49:58;;;;;;;3.47;1.00;;;24.20;87.60;;;;;;5130684;28;20023;-77
2021/12/13 07:52:38;;;;;;;5.30;0.80;;;24.20;87.80;;;;;;5130249;28;20105;-76
2021/12/13 07:55:27;;;;;;;6.07;1.00;;;24.20;87.90;;;;;;5128613;28;20023;-77
2021/12/13 07:57:56;;;;;;;7.30;1.52;;;24.20;87.80;;;;;;5132773;28;20034;-77
2021/12/13 08:00:37;;;;;;;5.32;1.15;;;24.20;87.70;;;;;;5126253;28;20031;-78
2021/12/13 08:03:16;;;;;;;3.22;0.57;;;24.20;87.70;;;;;;5123659;28;20038;-76
2021/12/13 08:05:54;;;;;;;3.40;0.88;;;24.10;87.70;;;;;;5131825;28;20050;-76
2021/12/13 08:08:26;;;;;;;3.40;0.73;;;24.00;88.10;;;;;;5128770;28;20378;-76
2021/12/13 08:11:00;;;;;;;4.20;0.80;;;23.90;88.20;;;;;;5123386;28;20074;-76
2021/12/13 08:13:32;;;;;;;2.03;0.47;;;23.80;88.50;;;;;;5118678;28;20015;-77
2021/12/13 08:16:01;;;;;;;3.60;0.50;;;23.60;88.80;;;;;;5123199;28;20037;-78
2021/12/13 08:18:42;;;;;;;4.57;1.00;;;23.60;89.00;;;;;;5131787;28;20023;-77
2021/12/13 08:21:25;;;;;;;2.78;0.60;;;23.40;89.40;;;;;;5132022;28;20019;-78
2021/12/13 08:24:01;;;;;;;9.18;1.15;;;23.40;90.00;;;;;;5131505;28;20027;-78
2021/12/13 08:26:43;;;;;;;4.82;1.35;;;23.30;90.10;;;;;;5128991;28;20034;-77
2021/12/13 08:29:31;;;;;;;4.68;1.08;;;23.20;90.20;;;;;;5132467;28;20158;-79
2021/12/13 08:32:05;;;;;;;4.43;0.77;;;23.10;90.40;;;;;;5124388;28;20458;-78
2021/12/13 08:34:38;;;;;;;8.45;0.77;;;23.00;90.50;;;;;;5131818;28;20422;-77
2021/12/13 08:37:28;;;;;;;2.97;0.70;;;23.00;90.70;;;;;;5127142;28;20489;-77
2021/12/13 08:40:11;;;;;;;4.72;1.33;;;22.90;90.80;;;;;;5030900;27;2848315;-77
2021/12/13 08:42:41;;;;;;;5.47;0.88;;;22.80;91.10;;;;;;5114106;27;20024;-80
2021/12/13 08:45:39;;;;;;;3.63;0.70;;;22.70;91.30;;;;;;5128270;27;20455;-80
2021/12/13 08:48:14;;;;;;;5.35;0.85;;;22.60;91.40;;;;;;5124503;27;20055;-81
2021/12/13 08:50:50;;;;;;;5.95;1.15;;;22.60;91.60;;;;;;5132587;27;20031;-80
2021/12/13 08:53:35;;;;;;;5.13;1.27;;;22.60;91.80;;;;;;5132421;27;20034;-80
2021/12/13 08:56:16;;;;;;;4.95;1.00;;;22.40;92.20;;;;;;5132278;27;20019;-82
2021/12/13 08:59:03;;;;;;;4.97;0.93;;;22.20;92.30;;;;;;5128472;27;20055;-78
2021/12/13 09:01:43;;;;;;;8.63;1.92;;;21.90;92.90;;;;;;5126078;27;20574;-77
2021/12/13 09:04:20;;;;;;;10.10;1.35;;;21.90;93.10;;;;;;5131155;27;20031;-79
2021/12/13 09:06:53;;;;;;;5.13;0.82;;;21.80;93.10;;;;;;5131340;27;20386;-78
2021/12/13 09:09:21;;;;;;;2.35;0.60;;;21.80;93.10;;;;;;5119767;27;20039;-81
2021/12/13 09:12:02;;;;;;;3.13;0.80;;;21.80;93.10;;;;;;5121863;27;20114;-78
2021/12/13 09:14:39;;;;;;;7.00;0.88;;;21.80;93.20;;;;;;5114955;27;20106;-77
2021/12/13 09:17:33;;;;;;;4.32;1.15;;;21.70;93.40;;;;;;5124024;27;20397;-78
2021/12/13 09:20:07;;;;;;;2.88;0.70;;;21.60;93.60;;;;;;5123989;27;20022;-78
2021/12/13 09:22:37;;;;;;;10.88;1.38;;;21.60;93.60;;;;;;5121655;27;20019;-79
2021/12/13 09:25:11;;;;;;;5.20;1.20;;;21.60;93.70;;;;;;5117966;27;20031;-79
2021/12/13 09:27:41;;;;;;;4.43;1.65;;;21.60;93.70;;;;;;5130973;27;20031;-78
2021/12/13 09:30:35;;;;;;;4.40;1.02;;;21.60;93.60;;;;;;5127502;27;20062;-80
2021/12/13 09:33:16;;;;;;;4.97;0.75;;;21.70;93.70;;;;;;5088633;27;20035;-79
2021/12/13 09:36:01;;;;;;;7.97;0.80;;;21.70;93.90;;;;;;5122739;27;20024;-81
2021/12/13 09:39:04;;;;;;;2.60;0.70;;;21.50;94.10;;;;;;5118638;27;20375;-77
2021/12/13 09:42:05;;;;;;;4.55;1.23;;;21.50;94.30;;;;;;5126688;27;20027;-79
2021/12/13 09:44:56;;;;;;;3.72;1.15;;;21.30;94.40;;;;;;5115089;27;20399;-76
2021/12/13 09:47:38;;;;;;;7.32;1.58;;;21.30;94.60;;;;;;5118243;27;20092;-77
2021/12/13 09:50:13;;;;;;;3.47;1.23;;;21.30;94.80;;;;;;5119884;27;20027;-79
2021/12/13 09:52:59;;;;;;;4.82;0.75;;;21.30;94.80;;;;;;5122996;27;20015;-77
2021/12/13 09:55:41;;;;;;;7.07;1.13;;;21.30;94.80;;;;;;5129066;27;20035;-80
2021/12/13 09:58:27;;;;;;;6.13;1.10;;;21.30;94.90;;;;;;5116584;27;20074;-79
2021/12/13 10:01:05;;;;;;;9.90;1.73;;;21.30;94.80;;;;;;5116048;27;20031;-80
2021/12/13 10:03:54;;;;;;;5.35;1.10;;;21.10;95.50;;;;;;5128867;27;20027;-81
2021/12/13 10:06:35;;;;;;;3.88;1.48;;;21.20;95.10;;;;;;5128789;27;20027;-79
2021/12/13 10:09:16;;;;;;;4.93;1.10;;;21.20;95.10;;;;;;5121252;27;20039;-77
2021/12/13 10:12:13;;;;;;;8.25;1.42;;;21.00;95.50;;;;;;5126462;27;20066;-78
2021/12/13 10:14:45;;;;;;;6.57;1.30;;;20.80;95.70;;;;;;5128811;27;20100;-80
2021/12/13 10:17:15;;;;;;;7.53;0.85;;;20.80;95.80;;;;;;5116190;27;20494;-79
2021/12/13 10:19:51;;;;;;;6.40;1.35;;;20.90;95.80;;;;;;5116718;27;20036;-78
2021/12/13 10:22:24;;;;;;;6.18;1.27;;;20.90;95.60;;;;;;5101483;27;20023;-79
2021/12/13 10:25:06;;;;;;;3.42;1.02;;;20.80;96.10;;;;;;5116507;27;20056;-80
2021/12/13 10:27:33;;;;;;;5.90;1.08;;;20.50;96.80;;;;;;5124821;27;20401;-79
2021/12/13 10:30:05;;;;;;;6.20;0.93;;;20.40;96.70;;;;;;5125166;28;20047;-80
2021/12/13 10:32:36;;;;;;;7.45;2.17;;;20.20;97.10;;;;;;5118263;28;20498;-79
2021/12/13 10:35:27;;;;;;;3.30;0.95;;;20.00;97.70;;;;;;5128346;28;20086;-78
2021/12/13 10:37:59;;;;;;;7.32;1.08;;;19.80;98.20;;;;;;5129781;28;20023;-84
2021/12/13 10:40:33;;;;;;;4.93;0.70;;;19.70;98.70;;;;;;5124573;28;20425;-79
2021/12/13 10:43:15;;;;;;;5.00;1.23;;;19.60;99.20;;;;;;5127498;28;20130;-81
2021/12/13 10:45:50;;;;;;;3.72;1.05;;;19.50;99.70;;;;;;5127946;28;20465;-83
2021/12/13 10:48:19;;;;;;;3.22;0.90;;;19.40;99.90;;;;;;5113048;28;20043;-82
2021/12/13 10:50:55;;;;;;;3.50;0.98;;;19.40;99.90;;;;;;5128434;28;20234;-82
2021/12/13 10:53:26;;;;;;;4.43;1.45;;;19.40;99.90;;;;;;5132350;27;20038;-83
2021/12/13 10:56:01;;;;;;;4.95;1.10;;;19.40;99.90;;;;;;5130617;28;20493;-84
2021/12/13 10:58:33;;;;;;;4.72;0.88;;;19.30;99.90;;;;;;5127834;28;20100;-77
2021/12/13 11:01:11;;;;;;;5.13;1.48;;;19.20;99.90;;;;;;5123606;28;20362;-78
2021/12/13 11:03:40;;;;;;;5.50;1.02;;;19.20;99.90;;;;;;5124648;28;20471;-78
2021/12/13 11:06:10;;;;;;;5.57;1.50;;;19.10;99.90;;;;;;5117676;28;20481;-77
2021/12/13 11:08:41;;;;;;;5.50;1.92;;;19.10;99.90;;;;;;5127180;28;20052;-78
2021/12/13 11:11:21;;;;;;;10.05;1.48;;;19.10;99.90;;;;;;5121877;28;20059;-78
2021/12/13 11:13:52;;;;;;;1.73;0.80;;;19.10;99.90;;;;;;5111149;28;20036;-79
2021/12/13 11:16:24;;;;;;;4.97;1.48;;;19.10;99.90;;;;;;5122342;28;20031;-78
2021/12/13 11:18:52;;;;;;;5.43;1.75;;;19.00;99.90;;;;;;5113622;28;20028;-77
2021/12/13 11:21:26;;;;;;;6.40;1.25;;;19.00;99.90;;;;;;5122415;28;20031;-78
2021/12/13 11:23:54;;;;;;;8.30;1.65;;;19.00;99.90;;;;;;5120568;28;20031;-78
2021/12/13 11:26:25;;;;;;;4.20;0.88;;;19.00;99.90;;;;;;5127633;28;20019;-77
2021/12/13 11:28:53;;;;;;;3.40;0.65;;;19.00;99.90;;;;;;5128438;28;20038;-76
2021/12/13 11:31:33;;;;;;;5.97;1.17;;;18.90;99.90;;;;;;5096803;27;20023;-76
2021/12/13 11:34:04;;;;;;;3.72;1.10;;;18.80;99.90;;;;;;5130989;27;20079;-77
2021/12/13 11:37:07;;;;;;;4.28;0.85;;;18.80;99.90;;;;;;5129000;27;20015;-77
2021/12/13 11:40:09;;;;;;;4.97;1.30;;;18.80;99.90;;;;;;5128972;27;20043;-78
2021/12/13 11:43:09;;;;;;;7.13;1.00;;;18.80;99.90;;;;;;5126073;27;20027;-79
2021/12/13 11:46:07;;;;;;;8.95;1.05;;;18.70;99.90;;;;;;5131399;27;20027;-77
2021/12/13 11:49:04;;;;;;;5.82;0.95;;;18.70;99.90;;;;;;5124946;27;20089;-77
2021/12/13 11:51:38;;;;;;;5.45;1.20;;;18.70;99.90;;;;;;5130528;27;20028;-76
2021/12/13 11:54:33;;;;;;;3.78;1.20;;;18.60;99.90;;;;;;5130168;27;20024;-76
2021/12/13 11:57:29;;;;;;;6.07;0.95;;;18.60;99.90;;;;;;5114706;27;20063;-78
2021/12/13 12:00:14;;;;;;;2.13;1.00;;;18.60;99.90;;;;;;5094369;27;20393;-77
2021/12/13 12:03:20;;;;;;;3.20;0.70;;;18.50;99.90;;;;;;5119534;27;20031;-79
2021/12/13 12:06:37;;;;;;;2.95;1.27;;;18.50;99.90;;;;;;5124148;27;20793;-77
2021/12/13 12:09:23;;;;;;;5.72;1.00;;;18.40;99.90;;;;;;5096602;27;20065;-78
2021/12/13 12:12:42;;;;;;;7.47;1.10;;;18.40;99.90;;;;;;5098740;28;20055;-78
2021/12/13 12:15:10;;;;;;;8.15;0.90;;;18.40;99.90;;;;;;5069197;28;20143;-80
2021/12/13 12:17:38;;;;;;;2.30;0.90;;;18.30;99.90;;;;;;5070192;28;20039;-80
2021/12/13 12:20:21;;;;;;;7.55;1.00;;;18.30;99.90;;;;;;5100015;27;20141;-81
2021/12/13 12:22:55;;;;;;;5.00;1.17;;;18.30;99.90;;;;;;5119866;27;20315;-82
2021/12/13 12:25:30;;;;;;;2.50;1.02;;;18.30;99.90;;;;;;5125736;27;20027;-80
2021/12/13 12:28:08;;;;;;;6.07;0.95;;;18.20;99.90;;;;;;5135560;27;20031;-78
2021/12/13 12:30:47;;;;;;;8.80;1.50;;;18.20;99.90;;;;;;5123782;27;20034;-82
2021/12/13 12:33:28;;;;;;;9.40;1.20;;;18.10;99.90;;;;;;5127417;27;20031;-80
2021/12/13 12:35:57;;;;;;;4.20;1.00;;;18.10;99.90;;;;;;5133105;27;20031;-79
2021/12/13 12:38:51;;;;;;;5.95;1.00;;;18.00;99.90;;;;;;5118778;27;20103;-80
2021/12/13 12:41:37;;;;;;;4.72;1.52;;;18.00;99.90;;;;;;5124517;27;20020;-79
2021/12/13 12:44:05;;;;;;;4.70;1.20;;;18.00;99.90;;;;;;5123459;27;20023;-82
2021/12/13 12:46:40;;;;;;;7.07;2.17;;;17.90;99.90;;;;;;5130632;27;20279;-79
2021/12/13 12:49:20;;;;;;;7.18;1.05;;;17.90;99.90;;;;;;5125350;27;20100;-79
2021/12/13 12:51:50;;;;;;;6.18;1.48;;;17.90;99.90;;;;;;5125758;27;20023;-84
2021/12/13 12:54:21;;;;;;;7.65;1.42;;;17.90;99.90;;;;;;5129101;27;20076;-82
2021/12/13 12:56:50;;;;;;;7.88;1.75;;;17.80;99.90;;;;;;5132154;27;20449;-80
2021/12/13 12:59:39;;;;;;;6.47;1.95;;;17.80;99.90;;;;;;5101438;27;20505;-80
2021/12/13 13:02:10;;;;;;;3.00;0.85;;;17.80;99.90;;;;;;5129275;27;20049;-78
2021/12/13 13:04:53;;;;;;;8.85;1.50;;;17.70;99.90;;;;;;5132218;27;20023;-79
2021/12/13 13:07:30;;;;;;;7.68;1.75;;;17.60;99.90;;;;;;5125610;27;20023;-81
2021/12/13 13:10:25;;;;;;;7.03;1.90;;;17.50;99.90;;;;;;5120327;27;20515;-81
2021/12/13 13:12:59;;;;;;;7.45;1.67;;;17.50;99.90;;;;;;5120553;27;20019;-80
2021/12/13 13:15:35;;;;;;;8.23;1.90;;;17.50;99.90;;;;;;5123306;27;20034;-80
2021/12/13 13:18:11;;;;;;;5.22;1.17;;;17.40;99.90;;;;;;5129751;27;20365;-80
2021/12/13 13:20:51;;;;;;;7.60;1.45;;;17.40;99.90;;;;;;5128892;27;20130;-79
2021/12/13 13:23:23;;;;;;;4.78;1.75;;;17.30;99.90;;;;;;5126697;27;20027;-79
2021/12/13 13:25:56;;;;;;;5.15;1.98;;;17.30;99.90;;;;;;5122114;27;20102;-79
2021/12/13 13:28:33;;;;;;;8.07;1.90;;;17.30;99.90;;;;;;5132440;27;20371;-81
2021/12/13 13:31:10;;;;;;;6.30;1.92;;;17.30;99.90;;;;;;5115785;27;20026;-80
2021/12/13 13:33:41;;;;;;;4.90;1.45;;;17.30;99.90;;;;;;5124675;27;20116;-78
2021/12/13 13:36:12;;;;;;;6.18;1.65;;;17.20;99.90;;;;;;5117918;27;20054;-79
2021/12/13 13:38:39;;;;;;;6.35;1.88;;;17.20;99.90;;;;;;5122104;27;20092;-82
2021/12/13 13:41:10;;;;;;;5.80;1.13;;;17.20;99.90;;;;;;5116715;27;20084;-81
2021/12/13 13:43:39;;;;;;;7.22;1.63;;;17.10;99.90;;;;;;5124264;27;20028;-78
2021/12/13 13:46:07;;;;;;;6.93;1.85;;;17.10;99.90;;;;;;5123754;27;20024;-77
2021/12/13 13:48:38;;;;;;;4.35;1.58;;;17.00;99.90;;;;;;5124450;27;20539;-79
2021/12/13 13:51:16;;;;;;;8.63;1.35;;;17.10;99.90;;;;;;5127694;27;20453;-79
2021/12/13 13:53:53;;;;;;;9.30;2.42;;;17.10;99.90;;;;;;5133880;27;20128;-80